sensor_id;sensor_type;location;lat;lon;timestamp;P1;durP1;ratioP1;P2;durP2;ratioP2
14342;SDS011;7255;53.596;9.960;2023-03-25T00:00:59;6.95;;;5.05;;
14342;SDS011;7255;53.596;9.960;2023-03-25T00:03:28;5.37;;;4.87;;
14342;SDS011;7255;53.596;9.960;2023-03-25T00:05:57;6.57;;;4.87;;
14342;SDS011;7255;53.596;9.960;2023-03-25T00:08:24;6.47;;;4.63;;
14342;SDS011;7255;53.596;9.960;2023-03-25T00:10:51;6.82;;;4.35;;
14342;SDS011;7255;53.596;9.960;2023-03-25T00:13:18;9.20;;;5.40;;
14342;SDS011;7255;53.596;9.960;2023-03-25T00:15:45;10.70;;;5.32;;
14342;SDS011;7255;53.596;9.960;2023-03-25T00:18:12;8.60;;;5.53;;
14342;SDS011;7255;53.596;9.960;2023-03-25T00:20:39;5.97;;;5.17;;
14342;SDS011;7255;53.596;9.960;2023-03-25T00:23:06;7.47;;;5.77;;
14342;SDS011;7255;53.596;9.960;2023-03-25T00:25:33;7.50;;;5.80;;
14342;SDS011;7255;53.596;9.960;2023-03-25T00:27:59;8.23;;;5.75;;
14342;SDS011;7255;53.596;9.960;2023-03-25T00:30:25;8.93;;;5.57;;
14342;SDS011;7255;53.596;9.960;2023-03-25T00:32:52;9.03;;;6.33;;
14342;SDS011;7255;53.596;9.960;2023-03-25T00:35:18;7.93;;;6.13;;
14342;SDS011;7255;53.596;9.960;2023-03-25T00:37:47;9.20;;;6.13;;
14342;SDS011;7255;53.596;9.960;2023-03-25T00:40:21;10.60;;;6.70;;
14342;SDS011;7255;53.596;9.960;2023-03-25T00:42:48;9.83;;;6.67;;
14342;SDS011;7255;53.596;9.960;2023-03-25T00:45:14;10.67;;;6.30;;
14342;SDS011;7255;53.596;9.960;2023-03-25T00:47:41;8.77;;;6.13;;
14342;SDS011;7255;53.596;9.960;2023-03-25T00:50:08;9.97;;;5.97;;
14342;SDS011;7255;53.596;9.960;2023-03-25T00:52:35;9.20;;;6.17;;
14342;SDS011;7255;53.596;9.960;2023-03-25T00:55:03;10.50;;;5.67;;
14342;SDS011;7255;53.596;9.960;2023-03-25T00:57:30;12.33;;;6.90;;
14342;SDS011;7255;53.596;9.960;2023-03-25T00:59:57;10.17;;;6.67;;
14342;SDS011;7255;53.596;9.960;2023-03-25T01:02:23;11.67;;;6.13;;
14342;SDS011;7255;53.596;9.960;2023-03-25T01:04:49;7.40;;;6.00;;
14342;SDS011;7255;53.596;9.960;2023-03-25T01:07:16;11.77;;;6.20;;
14342;SDS011;7255;53.596;9.960;2023-03-25T01:09:44;10.67;;;6.07;;
14342;SDS011;7255;53.596;9.960;2023-03-25T01:12:13;9.13;;;6.45;;
14342;SDS011;7255;53.596;9.960;2023-03-25T01:14:40;6.62;;;5.32;;
14342;SDS011;7255;53.596;9.960;2023-03-25T01:17:07;6.90;;;5.40;;
14342;SDS011;7255;53.596;9.960;2023-03-25T01:19:34;7.90;;;6.40;;
14342;SDS011;7255;53.596;9.960;2023-03-25T01:22:00;7.20;;;5.45;;
14342;SDS011;7255;53.596;9.960;2023-03-25T01:24:27;6.53;;;5.53;;
14342;SDS011;7255;53.596;9.960;2023-03-25T01:26:53;6.82;;;5.32;;
14342;SDS011;7255;53.596;9.960;2023-03-25T01:29:21;10.60;;;5.37;;
14342;SDS011;7255;53.596;9.960;2023-03-25T01:31:47;8.23;;;4.80;;
14342;SDS011;7255;53.596;9.960;2023-03-25T01:34:14;8.35;;;5.30;;
14342;SDS011;7255;53.596;9.960;2023-03-25T01:36:41;9.50;;;4.57;;
14342;SDS011;7255;53.596;9.960;2023-03-25T01:39:10;6.40;;;4.65;;
14342;SDS011;7255;53.596;9.960;2023-03-25T01:41:40;8.23;;;5.10;;
14342;SDS011;7255;53.596;9.960;2023-03-25T01:44:08;8.30;;;5.53;;
14342;SDS011;7255;53.596;9.960;2023-03-25T01:46:57;6.18;;;4.78;;
14342;SDS011;7255;53.596;9.960;2023-03-25T01:49:30;5.57;;;4.37;;
14342;SDS011;7255;53.596;9.960;2023-03-25T01:52:04;7.47;;;4.50;;
14342;SDS011;7255;53.596;9.960;2023-03-25T01:54:33;6.97;;;4.30;;
14342;SDS011;7255;53.596;9.960;2023-03-25T01:57:01;7.35;;;4.05;;
14342;SDS011;7255;53.596;9.960;2023-03-25T01:59:28;8.77;;;4.30;;
14342;SDS011;7255;53.596;9.960;2023-03-25T02:01:54;6.55;;;4.85;;
14342;SDS011;7255;53.596;9.960;2023-03-25T02:04:26;7.87;;;4.50;;
14342;SDS011;7255;53.596;9.960;2023-03-25T02:07:03;9.10;;;5.00;;
14342;SDS011;7255;53.596;9.960;2023-03-25T02:09:32;7.85;;;4.37;;
14342;SDS011;7255;53.596;9.960;2023-03-25T02:11:59;11.27;;;4.82;;
14342;SDS011;7255;53.596;9.960;2023-03-25T02:14:26;7.82;;;4.62;;
14342;SDS011;7255;53.596;9.960;2023-03-25T02:16:57;8.48;;;5.20;;
14342;SDS011;7255;53.596;9.960;2023-03-25T02:19:50;4.70;;;4.22;;
14342;SDS011;7255;53.596;9.960;2023-03-25T02:22:39;7.32;;;4.97;;
14342;SDS011;7255;53.596;9.960;2023-03-25T02:25:29;8.30;;;4.65;;
14342;SDS011;7255;53.596;9.960;2023-03-25T02:28:05;5.07;;;4.03;;
14342;SDS011;7255;53.596;9.960;2023-03-25T02:33:44;7.05;;;4.35;;
14342;SDS011;7255;53.596;9.960;2023-03-25T02:36:41;8.30;;;4.68;;
14342;SDS011;7255;53.596;9.960;2023-03-25T02:39:32;6.87;;;4.62;;
14342;SDS011;7255;53.596;9.960;2023-03-25T02:42:05;5.80;;;4.65;;
14342;SDS011;7255;53.596;9.960;2023-03-25T02:44:40;6.07;;;4.40;;
14342;SDS011;7255;53.596;9.960;2023-03-25T02:47:12;5.62;;;4.43;;
14342;SDS011;7255;53.596;9.960;2023-03-25T02:49:43;5.80;;;3.93;;
14342;SDS011;7255;53.596;9.960;2023-03-25T02:52:13;7.25;;;4.40;;
14342;SDS011;7255;53.596;9.960;2023-03-25T02:54:43;6.55;;;4.25;;
14342;SDS011;7255;53.596;9.960;2023-03-25T02:57:12;7.68;;;4.15;;
14342;SDS011;7255;53.596;9.960;2023-03-25T02:59:43;5.37;;;4.62;;
14342;SDS011;7255;53.596;9.960;2023-03-25T03:02:11;9.05;;;4.28;;
14342;SDS011;7255;53.596;9.960;2023-03-25T03:04:46;8.40;;;4.57;;
14342;SDS011;7255;53.596;9.960;2023-03-25T03:07:16;7.68;;;4.87;;
14342;SDS011;7255;53.596;9.960;2023-03-25T03:09:50;7.68;;;4.25;;
14342;SDS011;7255;53.596;9.960;2023-03-25T03:12:26;7.55;;;4.32;;
14342;SDS011;7255;53.596;9.960;2023-03-25T03:15:10;5.72;;;3.95;;
14342;SDS011;7255;53.596;9.960;2023-03-25T03:17:47;8.85;;;4.32;;
14342;SDS011;7255;53.596;9.960;2023-03-25T03:20:23;7.30;;;3.90;;
14342;SDS011;7255;53.596;9.960;2023-03-25T03:23:01;6.00;;;4.40;;
14342;SDS011;7255;53.596;9.960;2023-03-25T03:25:36;10.40;;;4.90;;
14342;SDS011;7255;53.596;9.960;2023-03-25T03:28:10;5.43;;;4.75;;
14342;SDS011;7255;53.596;9.960;2023-03-25T03:30:44;6.50;;;4.03;;
14342;SDS011;7255;53.596;9.960;2023-03-25T03:33:13;6.15;;;3.90;;
14342;SDS011;7255;53.596;9.960;2023-03-25T03:35:46;7.87;;;4.50;;
14342;SDS011;7255;53.596;9.960;2023-03-25T03:38:21;6.80;;;5.30;;
14342;SDS011;7255;53.596;9.960;2023-03-25T03:40:54;7.12;;;4.62;;
14342;SDS011;7255;53.596;9.960;2023-03-25T03:43:23;9.20;;;4.05;;
14342;SDS011;7255;53.596;9.960;2023-03-25T03:45:55;8.20;;;4.90;;
14342;SDS011;7255;53.596;9.960;2023-03-25T03:48:27;6.60;;;4.25;;
14342;SDS011;7255;53.596;9.960;2023-03-25T03:50:57;6.30;;;4.18;;
14342;SDS011;7255;53.596;9.960;2023-03-25T03:53:28;8.13;;;3.90;;
14342;SDS011;7255;53.596;9.960;2023-03-25T03:56:01;5.72;;;4.35;;
14342;SDS011;7255;53.596;9.960;2023-03-25T03:58:32;5.18;;;4.18;;
14342;SDS011;7255;53.596;9.960;2023-03-25T04:01:02;5.53;;;4.37;;
14342;SDS011;7255;53.596;9.960;2023-03-25T04:03:35;5.18;;;4.45;;
14342;SDS011;7255;53.596;9.960;2023-03-25T04:06:07;5.00;;;3.70;;
14342;SDS011;7255;53.596;9.960;2023-03-25T04:08:43;6.93;;;4.20;;
14342;SDS011;7255;53.596;9.960;2023-03-25T04:11:19;4.87;;;3.78;;
14342;SDS011;7255;53.596;9.960;2023-03-25T04:13:50;6.65;;;4.53;;
14342;SDS011;7255;53.596;9.960;2023-03-25T04:16:21;6.03;;;4.07;;
14342;SDS011;7255;53.596;9.960;2023-03-25T04:18:48;5.03;;;3.65;;
14342;SDS011;7255;53.596;9.960;2023-03-25T04:21:17;7.28;;;3.87;;
14342;SDS011;7255;53.596;9.960;2023-03-25T04:23:44;6.28;;;3.92;;
14342;SDS011;7255;53.596;9.960;2023-03-25T04:26:11;4.70;;;3.80;;
14342;SDS011;7255;53.596;9.960;2023-03-25T04:28:39;5.40;;;4.00;;
14342;SDS011;7255;53.596;9.960;2023-03-25T04:31:09;5.05;;;3.62;;
14342;SDS011;7255;53.596;9.960;2023-03-25T04:33:39;6.50;;;3.50;;
14342;SDS011;7255;53.596;9.960;2023-03-25T04:36:06;6.53;;;3.28;;
14342;SDS011;7255;53.596;9.960;2023-03-25T04:38:33;5.75;;;3.30;;
14342;SDS011;7255;53.596;9.960;2023-03-25T04:41:01;6.68;;;3.85;;
14342;SDS011;7255;53.596;9.960;2023-03-25T04:43:30;4.78;;;3.40;;
14342;SDS011;7255;53.596;9.960;2023-03-25T04:45:58;4.15;;;3.22;;
14342;SDS011;7255;53.596;9.960;2023-03-25T04:48:27;5.05;;;3.92;;
14342;SDS011;7255;53.596;9.960;2023-03-25T04:50:55;5.37;;;3.90;;
14342;SDS011;7255;53.596;9.960;2023-03-25T04:53:22;4.35;;;3.62;;
14342;SDS011;7255;53.596;9.960;2023-03-25T04:55:49;6.65;;;4.20;;
14342;SDS011;7255;53.596;9.960;2023-03-25T04:58:15;8.40;;;4.30;;
14342;SDS011;7255;53.596;9.960;2023-03-25T05:00:42;9.40;;;4.30;;
14342;SDS011;7255;53.596;9.960;2023-03-25T05:03:11;6.53;;;4.68;;
14342;SDS011;7255;53.596;9.960;2023-03-25T05:05:39;8.50;;;4.50;;
14342;SDS011;7255;53.596;9.960;2023-03-25T05:08:06;8.27;;;4.97;;
14342;SDS011;7255;53.596;9.960;2023-03-25T05:10:34;7.45;;;4.47;;
14342;SDS011;7255;53.596;9.960;2023-03-25T05:13:03;13.38;;;5.10;;
14342;SDS011;7255;53.596;9.960;2023-03-25T05:15:31;8.70;;;4.73;;
14342;SDS011;7255;53.596;9.960;2023-03-25T05:18:03;7.20;;;4.62;;
14342;SDS011;7255;53.596;9.960;2023-03-25T05:20:32;6.90;;;4.50;;
14342;SDS011;7255;53.596;9.960;2023-03-25T05:22:59;8.20;;;4.80;;
14342;SDS011;7255;53.596;9.960;2023-03-25T05:25:25;8.93;;;4.82;;
14342;SDS011;7255;53.596;9.960;2023-03-25T05:27:52;7.53;;;5.13;;
14342;SDS011;7255;53.596;9.960;2023-03-25T05:30:19;9.63;;;4.93;;
14342;SDS011;7255;53.596;9.960;2023-03-25T05:32:45;7.27;;;4.73;;
14342;SDS011;7255;53.596;9.960;2023-03-25T05:35:15;9.50;;;5.23;;
14342;SDS011;7255;53.596;9.960;2023-03-25T05:37:43;10.47;;;5.17;;
14342;SDS011;7255;53.596;9.960;2023-03-25T05:40:10;10.20;;;5.80;;
14342;SDS011;7255;53.596;9.960;2023-03-25T05:42:37;7.30;;;4.53;;
14342;SDS011;7255;53.596;9.960;2023-03-25T05:45:03;9.70;;;5.20;;
14342;SDS011;7255;53.596;9.960;2023-03-25T05:47:30;9.67;;;5.40;;
14342;SDS011;7255;53.596;9.960;2023-03-25T05:49:57;11.77;;;5.10;;
14342;SDS011;7255;53.596;9.960;2023-03-25T05:52:24;6.97;;;4.87;;
14342;SDS011;7255;53.596;9.960;2023-03-25T05:54:52;9.70;;;4.97;;
14342;SDS011;7255;53.596;9.960;2023-03-25T05:57:19;10.83;;;5.53;;
14342;SDS011;7255;53.596;9.960;2023-03-25T05:59:46;8.57;;;5.53;;
14342;SDS011;7255;53.596;9.960;2023-03-25T06:02:13;10.83;;;5.30;;
14342;SDS011;7255;53.596;9.960;2023-03-25T06:04:41;7.77;;;4.67;;
14342;SDS011;7255;53.596;9.960;2023-03-25T06:07:08;9.10;;;5.07;;
14342;SDS011;7255;53.596;9.960;2023-03-25T06:09:38;9.33;;;4.87;;
14342;SDS011;7255;53.596;9.960;2023-03-25T06:12:11;12.63;;;5.10;;
14342;SDS011;7255;53.596;9.960;2023-03-25T06:14:38;8.43;;;5.70;;
14342;SDS011;7255;53.596;9.960;2023-03-25T06:17:07;6.78;;;4.30;;
14342;SDS011;7255;53.596;9.960;2023-03-25T06:19:33;7.72;;;5.03;;
14342;SDS011;7255;53.596;9.960;2023-03-25T06:22:03;8.88;;;4.97;;
14342;SDS011;7255;53.596;9.960;2023-03-25T06:24:29;8.38;;;5.87;;
14342;SDS011;7255;53.596;9.960;2023-03-25T06:26:55;10.00;;;5.35;;
14342;SDS011;7255;53.596;9.960;2023-03-25T06:29:23;7.85;;;4.78;;
14342;SDS011;7255;53.596;9.960;2023-03-25T06:31:50;8.25;;;5.05;;
14342;SDS011;7255;53.596;9.960;2023-03-25T06:34:16;9.00;;;5.40;;
14342;SDS011;7255;53.596;9.960;2023-03-25T06:36:43;10.70;;;5.00;;
14342;SDS011;7255;53.596;9.960;2023-03-25T06:39:09;9.18;;;4.50;;
14342;SDS011;7255;53.596;9.960;2023-03-25T06:41:35;9.00;;;5.00;;
14342;SDS011;7255;53.596;9.960;2023-03-25T06:44:02;10.07;;;5.20;;
14342;SDS011;7255;53.596;9.960;2023-03-25T06:46:30;11.38;;;5.22;;
14342;SDS011;7255;53.596;9.960;2023-03-25T06:48:56;9.05;;;5.03;;
14342;SDS011;7255;53.596;9.960;2023-03-25T06:51:23;13.27;;;5.25;;
14342;SDS011;7255;53.596;9.960;2023-03-25T06:53:50;12.98;;;5.62;;
14342;SDS011;7255;53.596;9.960;2023-03-25T06:56:16;6.87;;;4.85;;
14342;SDS011;7255;53.596;9.960;2023-03-25T06:58:42;6.60;;;4.35;;
14342;SDS011;7255;53.596;9.960;2023-03-25T07:01:09;9.95;;;5.22;;
14342;SDS011;7255;53.596;9.960;2023-03-25T07:03:37;9.43;;;4.65;;
14342;SDS011;7255;53.596;9.960;2023-03-25T07:06:04;5.95;;;4.65;;
14342;SDS011;7255;53.596;9.960;2023-03-25T07:08:31;12.17;;;4.60;;
14342;SDS011;7255;53.596;9.960;2023-03-25T07:10:59;4.15;;;3.75;;
14342;SDS011;7255;53.596;9.960;2023-03-25T07:13:26;5.60;;;4.13;;
14342;SDS011;7255;53.596;9.960;2023-03-25T07:15:53;12.35;;;4.50;;
14342;SDS011;7255;53.596;9.960;2023-03-25T07:18:20;7.97;;;4.95;;
14342;SDS011;7255;53.596;9.960;2023-03-25T07:20:47;7.25;;;4.65;;
14342;SDS011;7255;53.596;9.960;2023-03-25T07:23:14;9.85;;;5.10;;
14342;SDS011;7255;53.596;9.960;2023-03-25T07:25:40;9.45;;;4.75;;
14342;SDS011;7255;53.596;9.960;2023-03-25T07:28:07;10.00;;;5.03;;
14342;SDS011;7255;53.596;9.960;2023-03-25T07:30:33;6.60;;;4.65;;
14342;SDS011;7255;53.596;9.960;2023-03-25T07:33:00;12.52;;;4.47;;
14342;SDS011;7255;53.596;9.960;2023-03-25T07:35:26;6.75;;;4.32;;
14342;SDS011;7255;53.596;9.960;2023-03-25T07:37:54;11.55;;;4.62;;
14342;SDS011;7255;53.596;9.960;2023-03-25T07:40:20;6.43;;;3.85;;
14342;SDS011;7255;53.596;9.960;2023-03-25T07:42:46;8.30;;;4.03;;
14342;SDS011;7255;53.596;9.960;2023-03-25T07:45:13;6.55;;;3.90;;
14342;SDS011;7255;53.596;9.960;2023-03-25T07:47:39;7.53;;;4.15;;
14342;SDS011;7255;53.596;9.960;2023-03-25T07:50:06;7.90;;;4.10;;
14342;SDS011;7255;53.596;9.960;2023-03-25T07:52:33;7.78;;;3.72;;
14342;SDS011;7255;53.596;9.960;2023-03-25T07:55:01;9.75;;;3.80;;
14342;SDS011;7255;53.596;9.960;2023-03-25T07:57:27;5.75;;;3.67;;
14342;SDS011;7255;53.596;9.960;2023-03-25T07:59:54;6.62;;;3.53;;
14342;SDS011;7255;53.596;9.960;2023-03-25T08:02:20;6.10;;;3.85;;
14342;SDS011;7255;53.596;9.960;2023-03-25T08:04:46;6.30;;;3.30;;
14342;SDS011;7255;53.596;9.960;2023-03-25T08:07:13;6.37;;;3.60;;
14342;SDS011;7255;53.596;9.960;2023-03-25T08:09:40;6.10;;;3.37;;
14342;SDS011;7255;53.596;9.960;2023-03-25T08:12:08;7.28;;;3.25;;
14342;SDS011;7255;53.596;9.960;2023-03-25T08:14:34;5.22;;;2.85;;
14342;SDS011;7255;53.596;9.960;2023-03-25T08:17:01;7.43;;;3.20;;
14342;SDS011;7255;53.596;9.960;2023-03-25T08:19:27;4.62;;;3.37;;
14342;SDS011;7255;53.596;9.960;2023-03-25T08:21:53;8.48;;;3.00;;
14342;SDS011;7255;53.596;9.960;2023-03-25T08:24:20;6.87;;;3.50;;
14342;SDS011;7255;53.596;9.960;2023-03-25T08:26:47;7.85;;;3.78;;
14342;SDS011;7255;53.596;9.960;2023-03-25T08:29:14;6.85;;;3.15;;
14342;SDS011;7255;53.596;9.960;2023-03-25T08:31:42;8.45;;;3.03;;
14342;SDS011;7255;53.596;9.960;2023-03-25T08:34:10;6.72;;;3.00;;
14342;SDS011;7255;53.596;9.960;2023-03-25T08:36:37;5.93;;;3.00;;
14342;SDS011;7255;53.596;9.960;2023-03-25T08:39:04;4.95;;;2.85;;
14342;SDS011;7255;53.596;9.960;2023-03-25T08:41:35;4.18;;;2.30;;
14342;SDS011;7255;53.596;9.960;2023-03-25T08:44:02;7.72;;;3.55;;
14342;SDS011;7255;53.596;9.960;2023-03-25T08:46:30;5.32;;;2.70;;
14342;SDS011;7255;53.596;9.960;2023-03-25T08:48:56;6.28;;;3.30;;
14342;SDS011;7255;53.596;9.960;2023-03-25T08:51:24;5.85;;;3.20;;
14342;SDS011;7255;53.596;9.960;2023-03-25T08:53:50;4.78;;;3.17;;
14342;SDS011;7255;53.596;9.960;2023-03-25T08:56:16;7.97;;;3.12;;
14342;SDS011;7255;53.596;9.960;2023-03-25T08:58:43;4.93;;;2.83;;
14342;SDS011;7255;53.596;9.960;2023-03-25T09:01:09;4.55;;;2.67;;
14342;SDS011;7255;53.596;9.960;2023-03-25T09:03:38;4.47;;;2.75;;
14342;SDS011;7255;53.596;9.960;2023-03-25T09:06:05;8.35;;;3.35;;
14342;SDS011;7255;53.596;9.960;2023-03-25T09:08:32;5.43;;;3.12;;
14342;SDS011;7255;53.596;9.960;2023-03-25T09:10:58;4.28;;;2.87;;
14342;SDS011;7255;53.596;9.960;2023-03-25T09:13:25;5.75;;;2.97;;
14342;SDS011;7255;53.596;9.960;2023-03-25T09:15:51;7.10;;;2.90;;
14342;SDS011;7255;53.596;9.960;2023-03-25T09:18:17;5.18;;;2.58;;
14342;SDS011;7255;53.596;9.960;2023-03-25T09:20:45;3.45;;;2.00;;
14342;SDS011;7255;53.596;9.960;2023-03-25T09:23:12;3.57;;;2.03;;
14342;SDS011;7255;53.596;9.960;2023-03-25T09:25:39;4.60;;;2.13;;
14342;SDS011;7255;53.596;9.960;2023-03-25T09:28:05;3.53;;;1.90;;
14342;SDS011;7255;53.596;9.960;2023-03-25T09:30:32;5.50;;;2.80;;
14342;SDS011;7255;53.596;9.960;2023-03-25T09:32:58;4.75;;;2.62;;
14342;SDS011;7255;53.596;9.960;2023-03-25T09:35:25;3.25;;;2.12;;
14342;SDS011;7255;53.596;9.960;2023-03-25T09:37:53;2.53;;;1.95;;
14342;SDS011;7255;53.596;9.960;2023-03-25T09:40:19;7.67;;;2.80;;
14342;SDS011;7255;53.596;9.960;2023-03-25T09:42:50;6.77;;;2.40;;
14342;SDS011;7255;53.596;9.960;2023-03-25T09:45:28;6.43;;;2.28;;
14342;SDS011;7255;53.596;9.960;2023-03-25T09:48:00;4.20;;;2.27;;
14342;SDS011;7255;53.596;9.960;2023-03-25T09:50:29;3.87;;;2.30;;
14342;SDS011;7255;53.596;9.960;2023-03-25T09:53:00;3.08;;;2.05;;
14342;SDS011;7255;53.596;9.960;2023-03-25T09:55:33;3.28;;;2.10;;
14342;SDS011;7255;53.596;9.960;2023-03-25T09:58:13;4.37;;;2.97;;
14342;SDS011;7255;53.596;9.960;2023-03-25T10:00:52;4.15;;;2.35;;
14342;SDS011;7255;53.596;9.960;2023-03-25T10:03:23;2.90;;;2.40;;
14342;SDS011;7255;53.596;9.960;2023-03-25T10:06:00;4.87;;;2.53;;
14342;SDS011;7255;53.596;9.960;2023-03-25T10:08:40;3.45;;;2.50;;
14342;SDS011;7255;53.596;9.960;2023-03-25T10:11:17;4.07;;;1.80;;
14342;SDS011;7255;53.596;9.960;2023-03-25T10:13:53;4.65;;;2.17;;
14342;SDS011;7255;53.596;9.960;2023-03-25T10:16:25;2.78;;;1.85;;
14342;SDS011;7255;53.596;9.960;2023-03-25T10:19:01;2.58;;;2.37;;
14342;SDS011;7255;53.596;9.960;2023-03-25T10:21:43;2.00;;;1.80;;
14342;SDS011;7255;53.596;9.960;2023-03-25T10:24:20;3.03;;;1.77;;
14342;SDS011;7255;53.596;9.960;2023-03-25T10:26:51;3.80;;;2.08;;
14342;SDS011;7255;53.596;9.960;2023-03-25T10:29:25;5.80;;;2.08;;
14342;SDS011;7255;53.596;9.960;2023-03-25T10:31:56;3.78;;;1.90;;
14342;SDS011;7255;53.596;9.960;2023-03-25T10:34:28;6.87;;;2.33;;
14342;SDS011;7255;53.596;9.960;2023-03-25T10:37:01;7.40;;;1.90;;
14342;SDS011;7255;53.596;9.960;2023-03-25T10:39:31;7.37;;;2.10;;
14342;SDS011;7255;53.596;9.960;2023-03-25T10:42:02;8.18;;;2.28;;
14342;SDS011;7255;53.596;9.960;2023-03-25T10:44:39;5.62;;;2.37;;
14342;SDS011;7255;53.596;9.960;2023-03-25T10:47:07;4.25;;;2.15;;
14342;SDS011;7255;53.596;9.960;2023-03-25T10:49:39;6.35;;;2.35;;
14342;SDS011;7255;53.596;9.960;2023-03-25T10:52:07;5.22;;;2.33;;
14342;SDS011;7255;53.596;9.960;2023-03-25T10:54:35;3.60;;;2.20;;
14342;SDS011;7255;53.596;9.960;2023-03-25T10:57:07;5.37;;;2.40;;
14342;SDS011;7255;53.596;9.960;2023-03-25T10:59:35;4.90;;;2.50;;
14342;SDS011;7255;53.596;9.960;2023-03-25T11:02:10;3.25;;;2.08;;
14342;SDS011;7255;53.596;9.960;2023-03-25T11:04:39;4.93;;;2.30;;
14342;SDS011;7255;53.596;9.960;2023-03-25T11:07:12;4.65;;;2.55;;
14342;SDS011;7255;53.596;9.960;2023-03-25T11:09:45;8.63;;;2.62;;
14342;SDS011;7255;53.596;9.960;2023-03-25T11:12:12;6.55;;;2.35;;
14342;SDS011;7255;53.596;9.960;2023-03-25T11:14:43;5.93;;;2.37;;
14342;SDS011;7255;53.596;9.960;2023-03-25T11:17:10;3.25;;;2.33;;
14342;SDS011;7255;53.596;9.960;2023-03-25T11:19:51;3.62;;;2.75;;
14342;SDS011;7255;53.596;9.960;2023-03-25T11:22:21;3.42;;;2.65;;
14342;SDS011;7255;53.596;9.960;2023-03-25T11:24:51;4.25;;;2.47;;
14342;SDS011;7255;53.596;9.960;2023-03-25T11:27:23;4.85;;;2.50;;
14342;SDS011;7255;53.596;9.960;2023-03-25T11:29:52;2.20;;;2.10;;
14342;SDS011;7255;53.596;9.960;2023-03-25T11:32:21;3.87;;;2.33;;
14342;SDS011;7255;53.596;9.960;2023-03-25T11:34:49;3.85;;;2.37;;
14342;SDS011;7255;53.596;9.960;2023-03-25T11:37:19;5.45;;;2.65;;
14342;SDS011;7255;53.596;9.960;2023-03-25T11:39:50;5.80;;;2.70;;
14342;SDS011;7255;53.596;9.960;2023-03-25T11:42:24;4.25;;;2.37;;
14342;SDS011;7255;53.596;9.960;2023-03-25T11:44:56;6.07;;;2.53;;
14342;SDS011;7255;53.596;9.960;2023-03-25T11:47:25;3.90;;;2.50;;
14342;SDS011;7255;53.596;9.960;2023-03-25T11:49:55;2.03;;;1.50;;
14342;SDS011;7255;53.596;9.960;2023-03-25T11:52:22;5.12;;;1.80;;
14342;SDS011;7255;53.596;9.960;2023-03-25T11:54:52;1.50;;;1.25;;
14342;SDS011;7255;53.596;9.960;2023-03-25T11:57:21;2.00;;;1.62;;
14342;SDS011;7255;53.596;9.960;2023-03-25T11:59:57;3.20;;;1.48;;
14342;SDS011;7255;53.596;9.960;2023-03-25T12:02:35;3.03;;;1.40;;
14342;SDS011;7255;53.596;9.960;2023-03-25T12:05:03;2.75;;;1.77;;
14342;SDS011;7255;53.596;9.960;2023-03-25T12:07:39;3.37;;;1.73;;
14342;SDS011;7255;53.596;9.960;2023-03-25T12:10:11;3.65;;;1.25;;
14342;SDS011;7255;53.596;9.960;2023-03-25T12:12:42;2.67;;;1.55;;
14342;SDS011;7255;53.596;9.960;2023-03-25T12:15:18;3.62;;;1.52;;
14342;SDS011;7255;53.596;9.960;2023-03-25T12:17:58;4.28;;;1.37;;
14342;SDS011;7255;53.596;9.960;2023-03-25T12:20:36;2.67;;;1.50;;
14342;SDS011;7255;53.596;9.960;2023-03-25T12:23:13;4.05;;;1.50;;
14342;SDS011;7255;53.596;9.960;2023-03-25T12:25:51;2.42;;;1.50;;
14342;SDS011;7255;53.596;9.960;2023-03-25T12:31:31;2.97;;;1.50;;
14342;SDS011;7255;53.596;9.960;2023-03-25T12:34:08;3.15;;;1.95;;
14342;SDS011;7255;53.596;9.960;2023-03-25T12:36:46;4.15;;;1.58;;
14342;SDS011;7255;53.596;9.960;2023-03-25T12:39:23;3.97;;;1.83;;
14342;SDS011;7255;53.596;9.960;2023-03-25T12:42:00;4.50;;;1.80;;
14342;SDS011;7255;53.596;9.960;2023-03-25T12:44:37;3.00;;;1.73;;
14342;SDS011;7255;53.596;9.960;2023-03-25T12:47:18;4.85;;;1.85;;
14342;SDS011;7255;53.596;9.960;2023-03-25T12:49:53;5.40;;;2.03;;
14342;SDS011;7255;53.596;9.960;2023-03-25T12:52:29;4.32;;;1.80;;
14342;SDS011;7255;53.596;9.960;2023-03-25T12:55:11;3.80;;;1.80;;
14342;SDS011;7255;53.596;9.960;2023-03-25T12:57:53;4.12;;;1.70;;
14342;SDS011;7255;53.596;9.960;2023-03-25T13:00:37;3.67;;;1.98;;
14342;SDS011;7255;53.596;9.960;2023-03-25T13:03:20;3.53;;;1.90;;
14342;SDS011;7255;53.596;9.960;2023-03-25T13:05:59;3.97;;;1.73;;
14342;SDS011;7255;53.596;9.960;2023-03-25T13:08:33;2.92;;;1.83;;
14342;SDS011;7255;53.596;9.960;2023-03-25T13:11:07;3.40;;;2.15;;
14342;SDS011;7255;53.596;9.960;2023-03-25T13:13:39;2.92;;;1.92;;
14342;SDS011;7255;53.596;9.960;2023-03-25T13:16:08;3.90;;;2.10;;
14342;SDS011;7255;53.596;9.960;2023-03-25T13:18:39;4.82;;;3.12;;
14342;SDS011;7255;53.596;9.960;2023-03-25T13:21:10;4.25;;;2.40;;
14342;SDS011;7255;53.596;9.960;2023-03-25T13:23:44;5.28;;;2.62;;
14342;SDS011;7255;53.596;9.960;2023-03-25T13:26:15;4.55;;;2.50;;
14342;SDS011;7255;53.596;9.960;2023-03-25T13:28:47;6.15;;;3.40;;
14342;SDS011;7255;53.596;9.960;2023-03-25T13:31:18;6.30;;;3.70;;
14342;SDS011;7255;53.596;9.960;2023-03-25T13:33:49;3.37;;;3.12;;
14342;SDS011;7255;53.596;9.960;2023-03-25T13:36:19;5.30;;;2.95;;
14342;SDS011;7255;53.596;9.960;2023-03-25T13:38:51;3.70;;;2.58;;
14342;SDS011;7255;53.596;9.960;2023-03-25T13:41:22;3.87;;;2.05;;
14342;SDS011;7255;53.596;9.960;2023-03-25T13:43:55;5.43;;;2.53;;
14342;SDS011;7255;53.596;9.960;2023-03-25T13:46:29;1.87;;;1.70;;
14342;SDS011;7255;53.596;9.960;2023-03-25T13:49:02;2.90;;;1.70;;
14342;SDS011;7255;53.596;9.960;2023-03-25T13:51:31;4.30;;;1.83;;
14342;SDS011;7255;53.596;9.960;2023-03-25T13:53:59;1.75;;;1.40;;
14342;SDS011;7255;53.596;9.960;2023-03-25T13:56:35;2.83;;;1.62;;
14342;SDS011;7255;53.596;9.960;2023-03-25T14:05:01;1.62;;;1.40;;
14342;SDS011;7255;53.596;9.960;2023-03-25T14:07:39;4.00;;;1.90;;
14342;SDS011;7255;53.596;9.960;2023-03-25T14:13:12;1.65;;;1.55;;
14342;SDS011;7255;53.596;9.960;2023-03-25T14:15:43;2.70;;;1.50;;
14342;SDS011;7255;53.596;9.960;2023-03-25T14:18:17;2.10;;;1.62;;
14342;SDS011;7255;53.596;9.960;2023-03-25T14:20:46;5.20;;;1.30;;
14342;SDS011;7255;53.596;9.960;2023-03-25T14:23:14;4.20;;;1.48;;
14342;SDS011;7255;53.596;9.960;2023-03-25T14:25:45;5.68;;;1.62;;
14342;SDS011;7255;53.596;9.960;2023-03-25T14:28:14;2.67;;;1.90;;
14342;SDS011;7255;53.596;9.960;2023-03-25T14:30:43;3.03;;;1.87;;
14342;SDS011;7255;53.596;9.960;2023-03-25T14:33:10;2.67;;;1.55;;
14342;SDS011;7255;53.596;9.960;2023-03-25T14:35:48;2.00;;;1.48;;
14342;SDS011;7255;53.596;9.960;2023-03-25T14:41:15;2.58;;;1.77;;
14342;SDS011;7255;53.596;9.960;2023-03-25T14:43:42;4.53;;;2.03;;
14342;SDS011;7255;53.596;9.960;2023-03-25T14:46:14;4.43;;;2.05;;
14342;SDS011;7255;53.596;9.960;2023-03-25T14:48:43;2.72;;;1.67;;
14342;SDS011;7255;53.596;9.960;2023-03-25T14:51:18;3.80;;;2.00;;
14342;SDS011;7255;53.596;9.960;2023-03-25T14:53:52;4.72;;;2.33;;
14342;SDS011;7255;53.596;9.960;2023-03-25T14:56:21;7.37;;;2.53;;
14342;SDS011;7255;53.596;9.960;2023-03-25T14:58:50;6.20;;;2.17;;
14342;SDS011;7255;53.596;9.960;2023-03-25T15:01:19;4.50;;;2.20;;
14342;SDS011;7255;53.596;9.960;2023-03-25T15:03:46;3.85;;;2.00;;
14342;SDS011;7255;53.596;9.960;2023-03-25T15:06:15;4.05;;;2.10;;
14342;SDS011;7255;53.596;9.960;2023-03-25T15:08:54;4.25;;;2.20;;
14342;SDS011;7255;53.596;9.960;2023-03-25T15:11:26;4.93;;;2.17;;
14342;SDS011;7255;53.596;9.960;2023-03-25T15:13:59;4.12;;;2.42;;
14342;SDS011;7255;53.596;9.960;2023-03-25T15:16:30;3.53;;;2.65;;
14342;SDS011;7255;53.596;9.960;2023-03-25T15:19:03;4.47;;;2.30;;
14342;SDS011;7255;53.596;9.960;2023-03-25T15:24:42;4.35;;;2.10;;
14342;SDS011;7255;53.596;9.960;2023-03-25T15:27:18;4.57;;;2.10;;
14342;SDS011;7255;53.596;9.960;2023-03-25T15:29:57;5.72;;;1.90;;
14342;SDS011;7255;53.596;9.960;2023-03-25T15:32:35;6.07;;;2.00;;
14342;SDS011;7255;53.596;9.960;2023-03-25T15:38:14;3.95;;;1.80;;
14342;SDS011;7255;53.596;9.960;2023-03-25T15:40:57;2.55;;;1.52;;
14342;SDS011;7255;53.596;9.960;2023-03-25T15:43:39;4.22;;;1.60;;